sensor_id;sensor_type;location;lat;lon;timestamp;P1;durP1;ratioP1;P2;durP2;ratioP2
4831;SDS011;2430;51.322;7.864;2022-12-07T00:01:48;7.57;;;6.53;;
4831;SDS011;2430;51.322;7.864;2022-12-07T00:04:16;11.30;;;6.10;;
4831;SDS011;2430;51.322;7.864;2022-12-07T00:06:44;11.37;;;7.77;;
4831;SDS011;2430;51.322;7.864;2022-12-07T00:09:12;10.93;;;7.57;;
4831;SDS011;2430;51.322;7.864;2022-12-07T00:11:39;7.90;;;5.90;;
4831;SDS011;2430;51.322;7.864;2022-12-07T00:14:07;9.83;;;8.37;;
4831;SDS011;2430;51.322;7.864;2022-12-07T00:16:34;8.10;;;5.87;;
4831;SDS011;2430;51.322;7.864;2022-12-07T00:19:01;12.07;;;7.10;;
4831;SDS011;2430;51.322;7.864;2022-12-07T00:21:29;8.17;;;6.57;;
4831;SDS011;2430;51.322;7.864;2022-12-07T00:23:58;9.77;;;7.07;;
4831;SDS011;2430;51.322;7.864;2022-12-07T00:26:25;10.47;;;6.97;;
4831;SDS011;2430;51.322;7.864;2022-12-07T00:28:52;11.63;;;7.40;;
4831;SDS011;2430;51.322;7.864;2022-12-07T00:31:20;7.70;;;5.83;;
4831;SDS011;2430;51.322;7.864;2022-12-07T00:33:47;13.13;;;8.47;;
4831;SDS011;2430;51.322;7.864;2022-12-07T00:36:15;14.03;;;8.23;;
4831;SDS011;2430;51.322;7.864;2022-12-07T00:38:41;8.53;;;6.70;;
4831;SDS011;2430;51.322;7.864;2022-12-07T00:41:10;10.13;;;7.33;;
4831;SDS011;2430;51.322;7.864;2022-12-07T00:43:37;7.53;;;6.73;;
4831;SDS011;2430;51.322;7.864;2022-12-07T00:46:04;9.27;;;7.00;;
4831;SDS011;2430;51.322;7.864;2022-12-07T00:48:31;9.80;;;7.30;;
4831;SDS011;2430;51.322;7.864;2022-12-07T00:50:57;18.83;;;8.27;;
4831;SDS011;2430;51.322;7.864;2022-12-07T00:53:24;7.83;;;5.83;;
4831;SDS011;2430;51.322;7.864;2022-12-07T00:55:50;8.13;;;6.13;;
4831;SDS011;2430;51.322;7.864;2022-12-07T00:58:19;12.07;;;7.47;;
4831;SDS011;2430;51.322;7.864;2022-12-07T01:00:45;12.03;;;6.90;;
4831;SDS011;2430;51.322;7.864;2022-12-07T01:03:13;21.90;;;8.83;;
4831;SDS011;2430;51.322;7.864;2022-12-07T01:05:40;8.47;;;7.53;;
4831;SDS011;2430;51.322;7.864;2022-12-07T01:08:14;10.57;;;7.43;;
4831;SDS011;2430;51.322;7.864;2022-12-07T01:10:41;11.63;;;7.00;;
4831;SDS011;2430;51.322;7.864;2022-12-07T01:13:07;12.57;;;8.20;;
4831;SDS011;2430;51.322;7.864;2022-12-07T01:15:35;7.37;;;6.63;;
4831;SDS011;2430;51.322;7.864;2022-12-07T01:18:04;9.07;;;7.07;;
4831;SDS011;2430;51.322;7.864;2022-12-07T01:20:31;10.00;;;7.47;;
4831;SDS011;2430;51.322;7.864;2022-12-07T01:22:57;12.60;;;8.37;;
4831;SDS011;2430;51.322;7.864;2022-12-07T01:25:24;9.50;;;6.73;;
4831;SDS011;2430;51.322;7.864;2022-12-07T01:27:50;11.73;;;7.33;;
4831;SDS011;2430;51.322;7.864;2022-12-07T01:30:17;11.10;;;8.17;;
4831;SDS011;2430;51.322;7.864;2022-12-07T01:32:45;10.80;;;7.80;;
4831;SDS011;2430;51.322;7.864;2022-12-07T01:35:12;12.67;;;8.60;;
4831;SDS011;2430;51.322;7.864;2022-12-07T01:37:38;8.97;;;7.17;;
4831;SDS011;2430;51.322;7.864;2022-12-07T01:40:06;12.53;;;7.83;;
4831;SDS011;2430;51.322;7.864;2022-12-07T01:42:33;19.50;;;7.73;;
4831;SDS011;2430;51.322;7.864;2022-12-07T01:47:47;11.23;;;8.00;;
4831;SDS011;2430;51.322;7.864;2022-12-07T01:50:14;15.07;;;9.67;;
4831;SDS011;2430;51.322;7.864;2022-12-07T01:52:40;10.17;;;7.73;;
4831;SDS011;2430;51.322;7.864;2022-12-07T01:55:08;10.87;;;7.57;;
4831;SDS011;2430;51.322;7.864;2022-12-07T01:57:36;12.40;;;8.70;;
4831;SDS011;2430;51.322;7.864;2022-12-07T02:00:04;11.20;;;8.43;;
4831;SDS011;2430;51.322;7.864;2022-12-07T02:02:31;17.43;;;9.10;;
4831;SDS011;2430;51.322;7.864;2022-12-07T02:05:01;13.67;;;10.53;;
4831;SDS011;2430;51.322;7.864;2022-12-07T02:07:28;13.40;;;9.43;;
4831;SDS011;2430;51.322;7.864;2022-12-07T02:09:55;12.23;;;8.73;;
4831;SDS011;2430;51.322;7.864;2022-12-07T02:12:21;10.90;;;7.80;;
4831;SDS011;2430;51.322;7.864;2022-12-07T02:14:49;9.37;;;7.00;;
4831;SDS011;2430;51.322;7.864;2022-12-07T02:17:17;9.00;;;7.63;;
4831;SDS011;2430;51.322;7.864;2022-12-07T02:22:38;11.50;;;8.97;;
4831;SDS011;2430;51.322;7.864;2022-12-07T02:25:08;15.97;;;10.13;;
4831;SDS011;2430;51.322;7.864;2022-12-07T02:27:41;17.93;;;9.43;;
4831;SDS011;2430;51.322;7.864;2022-12-07T02:30:11;14.73;;;8.90;;
4831;SDS011;2430;51.322;7.864;2022-12-07T02:32:40;10.20;;;7.93;;
4831;SDS011;2430;51.322;7.864;2022-12-07T02:35:09;13.43;;;10.60;;
4831;SDS011;2430;51.322;7.864;2022-12-07T02:37:38;9.23;;;8.03;;
4831;SDS011;2430;51.322;7.864;2022-12-07T02:40:06;11.77;;;8.30;;
4831;SDS011;2430;51.322;7.864;2022-12-07T02:42:36;11.40;;;7.20;;
4831;SDS011;2430;51.322;7.864;2022-12-07T02:45:04;20.20;;;7.53;;
4831;SDS011;2430;51.322;7.864;2022-12-07T02:47:33;11.10;;;8.90;;
4831;SDS011;2430;51.322;7.864;2022-12-07T02:50:02;10.17;;;7.97;;
4831;SDS011;2430;51.322;7.864;2022-12-07T02:52:29;12.93;;;8.93;;
4831;SDS011;2430;51.322;7.864;2022-12-07T02:54:55;15.97;;;9.10;;
4831;SDS011;2430;51.322;7.864;2022-12-07T02:57:26;10.60;;;8.00;;
4831;SDS011;2430;51.322;7.864;2022-12-07T02:59:59;13.00;;;8.00;;
4831;SDS011;2430;51.322;7.864;2022-12-07T03:02:28;13.47;;;7.27;;
4831;SDS011;2430;51.322;7.864;2022-12-07T03:05:02;10.90;;;7.60;;
4831;SDS011;2430;51.322;7.864;2022-12-07T03:07:38;10.37;;;7.27;;
4831;SDS011;2430;51.322;7.864;2022-12-07T03:10:07;9.57;;;6.80;;
4831;SDS011;2430;51.322;7.864;2022-12-07T03:12:37;15.53;;;8.53;;
4831;SDS011;2430;51.322;7.864;2022-12-07T03:15:05;12.57;;;6.80;;
4831;SDS011;2430;51.322;7.864;2022-12-07T03:17:34;6.70;;;5.57;;
4831;SDS011;2430;51.322;7.864;2022-12-07T03:20:04;8.80;;;6.23;;
4831;SDS011;2430;51.322;7.864;2022-12-07T03:22:33;9.70;;;6.40;;
4831;SDS011;2430;51.322;7.864;2022-12-07T03:25:01;8.80;;;6.20;;
4831;SDS011;2430;51.322;7.864;2022-12-07T03:27:30;9.87;;;6.87;;
4831;SDS011;2430;51.322;7.864;2022-12-07T03:29:58;10.40;;;7.37;;
4831;SDS011;2430;51.322;7.864;2022-12-07T03:32:25;10.83;;;7.00;;
4831;SDS011;2430;51.322;7.864;2022-12-07T03:34:56;5.67;;;5.07;;
4831;SDS011;2430;51.322;7.864;2022-12-07T03:37:26;7.57;;;6.00;;
4831;SDS011;2430;51.322;7.864;2022-12-07T03:39:57;12.30;;;8.27;;
4831;SDS011;2430;51.322;7.864;2022-12-07T03:42:25;11.70;;;6.80;;
4831;SDS011;2430;51.322;7.864;2022-12-07T03:44:51;12.90;;;7.80;;
4831;SDS011;2430;51.322;7.864;2022-12-07T03:47:19;12.40;;;7.60;;
4831;SDS011;2430;51.322;7.864;2022-12-07T03:49:50;10.20;;;6.67;;
4831;SDS011;2430;51.322;7.864;2022-12-07T03:52:18;8.50;;;6.23;;
4831;SDS011;2430;51.322;7.864;2022-12-07T03:54:51;9.17;;;6.73;;
4831;SDS011;2430;51.322;7.864;2022-12-07T03:57:18;9.27;;;7.00;;
4831;SDS011;2430;51.322;7.864;2022-12-07T03:59:47;9.37;;;6.43;;
4831;SDS011;2430;51.322;7.864;2022-12-07T04:02:14;10.63;;;6.77;;
4831;SDS011;2430;51.322;7.864;2022-12-07T04:04:41;8.77;;;6.27;;
4831;SDS011;2430;51.322;7.864;2022-12-07T04:07:09;6.93;;;5.60;;
4831;SDS011;2430;51.322;7.864;2022-12-07T04:09:35;6.73;;;5.47;;
4831;SDS011;2430;51.322;7.864;2022-12-07T04:12:04;11.70;;;6.10;;
4831;SDS011;2430;51.322;7.864;2022-12-07T04:14:30;4.50;;;3.60;;
4831;SDS011;2430;51.322;7.864;2022-12-07T04:16:57;6.53;;;5.77;;
4831;SDS011;2430;51.322;7.864;2022-12-07T04:19:24;7.73;;;4.90;;
4831;SDS011;2430;51.322;7.864;2022-12-07T04:21:51;9.63;;;6.37;;
4831;SDS011;2430;51.322;7.864;2022-12-07T04:24:18;7.10;;;5.00;;
4831;SDS011;2430;51.322;7.864;2022-12-07T04:26:45;7.90;;;5.70;;
4831;SDS011;2430;51.322;7.864;2022-12-07T04:29:13;7.90;;;5.00;;
4831;SDS011;2430;51.322;7.864;2022-12-07T04:31:39;12.83;;;5.90;;
4831;SDS011;2430;51.322;7.864;2022-12-07T04:34:09;6.10;;;4.80;;
4831;SDS011;2430;51.322;7.864;2022-12-07T04:36:35;5.73;;;5.10;;
4831;SDS011;2430;51.322;7.864;2022-12-07T04:39:02;7.70;;;5.80;;
4831;SDS011;2430;51.322;7.864;2022-12-07T04:41:28;14.57;;;5.70;;
4831;SDS011;2430;51.322;7.864;2022-12-07T04:43:55;8.33;;;5.90;;
4831;SDS011;2430;51.322;7.864;2022-12-07T04:46:24;5.50;;;4.80;;
4831;SDS011;2430;51.322;7.864;2022-12-07T04:48:51;7.40;;;5.30;;
4831;SDS011;2430;51.322;7.864;2022-12-07T04:51:18;7.67;;;4.47;;
4831;SDS011;2430;51.322;7.864;2022-12-07T04:53:45;4.10;;;3.80;;
4831;SDS011;2430;51.322;7.864;2022-12-07T04:56:13;6.03;;;5.30;;
4831;SDS011;2430;51.322;7.864;2022-12-07T04:58:47;6.60;;;4.93;;
4831;SDS011;2430;51.322;7.864;2022-12-07T05:10:14;7.60;;;4.90;;
4831;SDS011;2430;51.322;7.864;2022-12-07T05:12:41;5.83;;;4.40;;
4831;SDS011;2430;51.322;7.864;2022-12-07T05:15:07;7.67;;;4.97;;
4831;SDS011;2430;51.322;7.864;2022-12-07T05:17:34;12.00;;;5.30;;
4831;SDS011;2430;51.322;7.864;2022-12-07T05:20:01;6.60;;;3.87;;
4831;SDS011;2430;51.322;7.864;2022-12-07T05:22:27;9.53;;;5.93;;
4831;SDS011;2430;51.322;7.864;2022-12-07T05:24:54;5.47;;;4.93;;
4831;SDS011;2430;51.322;7.864;2022-12-07T05:27:22;7.10;;;5.17;;
4831;SDS011;2430;51.322;7.864;2022-12-07T05:29:49;7.47;;;5.30;;
4831;SDS011;2430;51.322;7.864;2022-12-07T05:32:18;7.83;;;5.53;;
4831;SDS011;2430;51.322;7.864;2022-12-07T05:34:45;5.90;;;4.33;;
4831;SDS011;2430;51.322;7.864;2022-12-07T05:37:12;8.30;;;5.00;;
4831;SDS011;2430;51.322;7.864;2022-12-07T05:39:39;7.43;;;5.53;;
4831;SDS011;2430;51.322;7.864;2022-12-07T05:42:08;9.23;;;5.17;;
4831;SDS011;2430;51.322;7.864;2022-12-07T05:44:43;6.30;;;5.03;;
4831;SDS011;2430;51.322;7.864;2022-12-07T05:47:11;10.03;;;6.50;;
4831;SDS011;2430;51.322;7.864;2022-12-07T05:49:38;5.00;;;3.93;;
4831;SDS011;2430;51.322;7.864;2022-12-07T05:52:05;7.43;;;4.50;;
4831;SDS011;2430;51.322;7.864;2022-12-07T05:54:31;6.50;;;3.97;;
4831;SDS011;2430;51.322;7.864;2022-12-07T05:56:58;23.83;;;4.80;;
4831;SDS011;2430;51.322;7.864;2022-12-07T05:59:25;5.90;;;4.10;;
4831;SDS011;2430;51.322;7.864;2022-12-07T06:01:54;5.07;;;4.23;;
4831;SDS011;2430;51.322;7.864;2022-12-07T06:04:21;6.00;;;3.97;;
4831;SDS011;2430;51.322;7.864;2022-12-07T06:06:48;4.80;;;4.30;;
4831;SDS011;2430;51.322;7.864;2022-12-07T06:09:15;17.77;;;4.40;;
4831;SDS011;2430;51.322;7.864;2022-12-07T06:11:43;6.40;;;3.83;;
4831;SDS011;2430;51.322;7.864;2022-12-07T06:14:27;5.00;;;4.07;;
4831;SDS011;2430;51.322;7.864;2022-12-07T06:16:55;6.50;;;3.73;;
4831;SDS011;2430;51.322;7.864;2022-12-07T06:19:21;10.30;;;4.50;;
4831;SDS011;2430;51.322;7.864;2022-12-07T06:21:48;6.30;;;4.30;;
4831;SDS011;2430;51.322;7.864;2022-12-07T06:24:15;4.73;;;4.00;;
4831;SDS011;2430;51.322;7.864;2022-12-07T06:26:42;4.87;;;3.90;;
4831;SDS011;2430;51.322;7.864;2022-12-07T06:29:08;9.13;;;4.60;;
4831;SDS011;2430;51.322;7.864;2022-12-07T06:31:35;3.83;;;3.50;;
4831;SDS011;2430;51.322;7.864;2022-12-07T06:34:04;5.20;;;3.93;;
4831;SDS011;2430;51.322;7.864;2022-12-07T06:36:31;5.43;;;4.53;;
4831;SDS011;2430;51.322;7.864;2022-12-07T06:38:57;5.63;;;4.50;;
4831;SDS011;2430;51.322;7.864;2022-12-07T06:41:24;7.73;;;4.50;;
4831;SDS011;2430;51.322;7.864;2022-12-07T06:43:50;7.13;;;3.53;;
4831;SDS011;2430;51.322;7.864;2022-12-07T06:46:17;7.87;;;4.80;;
4831;SDS011;2430;51.322;7.864;2022-12-07T06:48:44;16.83;;;6.00;;
4831;SDS011;2430;51.322;7.864;2022-12-07T06:51:12;6.73;;;4.20;;
4831;SDS011;2430;51.322;7.864;2022-12-07T06:53:38;11.73;;;6.03;;
4831;SDS011;2430;51.322;7.864;2022-12-07T06:56:06;7.57;;;5.20;;
4831;SDS011;2430;51.322;7.864;2022-12-07T06:58:33;9.30;;;5.50;;
4831;SDS011;2430;51.322;7.864;2022-12-07T07:01:00;7.30;;;4.93;;
4831;SDS011;2430;51.322;7.864;2022-12-07T07:03:26;5.57;;;4.30;;
4831;SDS011;2430;51.322;7.864;2022-12-07T07:05:53;4.13;;;3.80;;
4831;SDS011;2430;51.322;7.864;2022-12-07T07:08:21;11.13;;;4.83;;
4831;SDS011;2430;51.322;7.864;2022-12-07T07:10:48;9.20;;;4.97;;
4831;SDS011;2430;51.322;7.864;2022-12-07T07:13:15;5.13;;;4.30;;
4831;SDS011;2430;51.322;7.864;2022-12-07T07:15:42;8.73;;;4.10;;
4831;SDS011;2430;51.322;7.864;2022-12-07T07:18:08;8.20;;;4.40;;
4831;SDS011;2430;51.322;7.864;2022-12-07T07:20:35;15.83;;;4.60;;
4831;SDS011;2430;51.322;7.864;2022-12-07T07:23:02;5.57;;;4.40;;
4831;SDS011;2430;51.322;7.864;2022-12-07T07:25:30;6.73;;;4.90;;
4831;SDS011;2430;51.322;7.864;2022-12-07T07:27:56;12.20;;;4.87;;
4831;SDS011;2430;51.322;7.864;2022-12-07T07:30:23;9.90;;;4.40;;
4831;SDS011;2430;51.322;7.864;2022-12-07T07:32:49;10.20;;;5.70;;
4831;SDS011;2430;51.322;7.864;2022-12-07T07:35:16;10.03;;;4.53;;
4831;SDS011;2430;51.322;7.864;2022-12-07T07:37:42;14.30;;;7.43;;
4831;SDS011;2430;51.322;7.864;2022-12-07T07:40:09;9.43;;;4.20;;
4831;SDS011;2430;51.322;7.864;2022-12-07T07:42:37;7.90;;;5.70;;
4831;SDS011;2430;51.322;7.864;2022-12-07T07:45:04;12.77;;;6.20;;
4831;SDS011;2430;51.322;7.864;2022-12-07T07:47:31;5.10;;;4.60;;
4831;SDS011;2430;51.322;7.864;2022-12-07T07:49:57;12.83;;;5.37;;
4831;SDS011;2430;51.322;7.864;2022-12-07T07:52:24;6.97;;;4.13;;
4831;SDS011;2430;51.322;7.864;2022-12-07T07:54:50;15.87;;;4.77;;
4831;SDS011;2430;51.322;7.864;2022-12-07T07:57:17;6.03;;;4.77;;
4831;SDS011;2430;51.322;7.864;2022-12-07T07:59:45;7.53;;;4.13;;
4831;SDS011;2430;51.322;7.864;2022-12-07T08:02:13;8.33;;;4.63;;
4831;SDS011;2430;51.322;7.864;2022-12-07T08:04:40;4.83;;;4.33;;
4831;SDS011;2430;51.322;7.864;2022-12-07T08:07:06;5.40;;;3.90;;
4831;SDS011;2430;51.322;7.864;2022-12-07T08:09:33;5.70;;;4.10;;
4831;SDS011;2430;51.322;7.864;2022-12-07T08:11:59;6.63;;;3.60;;
4831;SDS011;2430;51.322;7.864;2022-12-07T08:14:26;12.13;;;5.47;;
4831;SDS011;2430;51.322;7.864;2022-12-07T08:16:55;7.83;;;3.80;;
4831;SDS011;2430;51.322;7.864;2022-12-07T08:19:21;15.00;;;3.80;;
4831;SDS011;2430;51.322;7.864;2022-12-07T08:21:48;5.47;;;4.10;;
4831;SDS011;2430;51.322;7.864;2022-12-07T08:24:15;5.43;;;3.57;;
4831;SDS011;2430;51.322;7.864;2022-12-07T08:26:42;5.87;;;4.40;;
4831;SDS011;2430;51.322;7.864;2022-12-07T08:29:08;7.00;;;5.30;;
4831;SDS011;2430;51.322;7.864;2022-12-07T08:31:35;6.20;;;4.20;;
4831;SDS011;2430;51.322;7.864;2022-12-07T08:34:03;15.73;;;4.30;;
4831;SDS011;2430;51.322;7.864;2022-12-07T08:36:29;5.10;;;3.60;;
4831;SDS011;2430;51.322;7.864;2022-12-07T08:38:56;6.80;;;4.37;;
4831;SDS011;2430;51.322;7.864;2022-12-07T08:41:22;5.20;;;3.80;;
4831;SDS011;2430;51.322;7.864;2022-12-07T08:43:50;5.63;;;4.20;;
4831;SDS011;2430;51.322;7.864;2022-12-07T08:46:18;5.60;;;3.67;;
4831;SDS011;2430;51.322;7.864;2022-12-07T08:48:46;6.93;;;4.87;;
4831;SDS011;2430;51.322;7.864;2022-12-07T08:51:15;6.03;;;4.00;;
4831;SDS011;2430;51.322;7.864;2022-12-07T08:53:41;4.40;;;3.40;;
4831;SDS011;2430;51.322;7.864;2022-12-07T08:56:09;4.70;;;3.40;;
4831;SDS011;2430;51.322;7.864;2022-12-07T08:58:36;3.57;;;3.27;;
4831;SDS011;2430;51.322;7.864;2022-12-07T09:01:03;6.20;;;3.43;;
4831;SDS011;2430;51.322;7.864;2022-12-07T09:03:30;4.43;;;3.67;;
4831;SDS011;2430;51.322;7.864;2022-12-07T09:05:56;5.33;;;3.73;;
4831;SDS011;2430;51.322;7.864;2022-12-07T09:08:30;5.17;;;3.87;;
4831;SDS011;2430;51.322;7.864;2022-12-07T09:10:57;7.60;;;4.70;;
4831;SDS011;2430;51.322;7.864;2022-12-07T09:13:24;15.17;;;3.47;;
4831;SDS011;2430;51.322;7.864;2022-12-07T09:15:50;4.10;;;2.87;;
4831;SDS011;2430;51.322;7.864;2022-12-07T09:18:17;6.43;;;3.37;;
4831;SDS011;2430;51.322;7.864;2022-12-07T09:20:43;4.90;;;3.03;;
4831;SDS011;2430;51.322;7.864;2022-12-07T09:23:10;4.40;;;3.07;;
4831;SDS011;2430;51.322;7.864;2022-12-07T09:25:38;11.23;;;3.80;;
4831;SDS011;2430;51.322;7.864;2022-12-07T09:28:04;2.97;;;2.47;;
4831;SDS011;2430;51.322;7.864;2022-12-07T09:30:31;4.07;;;2.57;;
4831;SDS011;2430;51.322;7.864;2022-12-07T09:32:57;9.00;;;2.43;;
4831;SDS011;2430;51.322;7.864;2022-12-07T09:35:24;14.90;;;3.27;;
4831;SDS011;2430;51.322;7.864;2022-12-07T09:37:51;2.70;;;2.30;;
4831;SDS011;2430;51.322;7.864;2022-12-07T09:40:18;3.70;;;3.10;;
4831;SDS011;2430;51.322;7.864;2022-12-07T09:42:48;3.77;;;2.43;;
4831;SDS011;2430;51.322;7.864;2022-12-07T09:45:17;7.33;;;3.97;;
4831;SDS011;2430;51.322;7.864;2022-12-07T09:47:45;5.03;;;3.20;;
4831;SDS011;2430;51.322;7.864;2022-12-07T09:50:12;6.67;;;3.20;;
4831;SDS011;2430;51.322;7.864;2022-12-07T09:52:39;4.40;;;2.67;;
4831;SDS011;2430;51.322;7.864;2022-12-07T09:55:11;3.07;;;2.70;;
4831;SDS011;2430;51.322;7.864;2022-12-07T09:57:38;4.73;;;2.53;;
4831;SDS011;2430;51.322;7.864;2022-12-07T10:00:10;4.40;;;2.23;;
4831;SDS011;2430;51.322;7.864;2022-12-07T10:02:39;4.73;;;3.13;;
4831;SDS011;2430;51.322;7.864;2022-12-07T10:05:07;3.67;;;2.43;;
4831;SDS011;2430;51.322;7.864;2022-12-07T10:07:37;4.80;;;2.83;;
4831;SDS011;2430;51.322;7.864;2022-12-07T10:10:04;3.33;;;2.70;;
4831;SDS011;2430;51.322;7.864;2022-12-07T10:12:30;2.90;;;2.60;;
4831;SDS011;2430;51.322;7.864;2022-12-07T10:15:12;3.20;;;2.70;;
4831;SDS011;2430;51.322;7.864;2022-12-07T10:17:40;8.87;;;3.10;;
4831;SDS011;2430;51.322;7.864;2022-12-07T10:20:13;12.00;;;3.53;;
4831;SDS011;2430;51.322;7.864;2022-12-07T10:22:50;8.27;;;2.77;;
4831;SDS011;2430;51.322;7.864;2022-12-07T10:25:20;3.67;;;3.07;;
4831;SDS011;2430;51.322;7.864;2022-12-07T10:27:56;6.77;;;3.03;;
4831;SDS011;2430;51.322;7.864;2022-12-07T10:30:24;3.03;;;2.83;;
4831;SDS011;2430;51.322;7.864;2022-12-07T10:32:51;3.93;;;3.23;;
4831;SDS011;2430;51.322;7.864;2022-12-07T10:35:20;3.40;;;2.50;;
4831;SDS011;2430;51.322;7.864;2022-12-07T10:37:47;3.40;;;2.93;;
4831;SDS011;2430;51.322;7.864;2022-12-07T10:40:24;4.80;;;3.17;;
4831;SDS011;2430;51.322;7.864;2022-12-07T10:42:59;6.70;;;4.10;;
4831;SDS011;2430;51.322;7.864;2022-12-07T10:45:27;4.80;;;3.50;;
4831;SDS011;2430;51.322;7.864;2022-12-07T10:47:55;3.93;;;3.47;;
4831;SDS011;2430;51.322;7.864;2022-12-07T10:50:45;6.63;;;4.13;;
4831;SDS011;2430;51.322;7.864;2022-12-07T10:53:28;4.70;;;3.80;;
4831;SDS011;2430;51.322;7.864;2022-12-07T10:56:08;4.57;;;4.17;;
4831;SDS011;2430;51.322;7.864;2022-12-07T10:58:43;2.70;;;2.60;;
4831;SDS011;2430;51.322;7.864;2022-12-07T11:01:17;6.33;;;3.83;;
4831;SDS011;2430;51.322;7.864;2022-12-07T11:03:55;4.23;;;3.37;;
4831;SDS011;2430;51.322;7.864;2022-12-07T11:06:30;7.63;;;4.60;;
4831;SDS011;2430;51.322;7.864;2022-12-07T11:09:01;11.40;;;6.37;;
4831;SDS011;2430;51.322;7.864;2022-12-07T11:11:30;5.10;;;3.87;;
4831;SDS011;2430;51.322;7.864;2022-12-07T11:14:03;6.23;;;3.27;;
4831;SDS011;2430;51.322;7.864;2022-12-07T11:16:36;11.60;;;4.47;;
4831;SDS011;2430;51.322;7.864;2022-12-07T11:19:06;4.50;;;2.80;;
4831;SDS011;2430;51.322;7.864;2022-12-07T11:21:41;21.17;;;3.73;;
4831;SDS011;2430;51.322;7.864;2022-12-07T11:24:11;5.67;;;2.60;;
4831;SDS011;2430;51.322;7.864;2022-12-07T11:26:47;5.37;;;3.43;;
4831;SDS011;2430;51.322;7.864;2022-12-07T11:29:22;2.97;;;2.77;;
4831;SDS011;2430;51.322;7.864;2022-12-07T11:31:56;2.70;;;2.50;;
4831;SDS011;2430;51.322;7.864;2022-12-07T11:34:25;4.77;;;3.20;;
4831;SDS011;2430;51.322;7.864;2022-12-07T11:36:54;3.20;;;2.90;;
4831;SDS011;2430;51.322;7.864;2022-12-07T11:39:23;7.63;;;4.60;;
4831;SDS011;2430;51.322;7.864;2022-12-07T11:41:52;25.03;;;3.80;;
4831;SDS011;2430;51.322;7.864;2022-12-07T11:44:24;3.60;;;2.90;;
4831;SDS011;2430;51.322;7.864;2022-12-07T11:46:54;10.90;;;4.90;;
4831;SDS011;2430;51.322;7.864;2022-12-07T11:49:26;3.50;;;2.07;;
4831;SDS011;2430;51.322;7.864;2022-12-07T11:51:54;2.43;;;2.23;;
4831;SDS011;2430;51.322;7.864;2022-12-07T11:54:24;3.43;;;2.73;;
4831;SDS011;2430;51.322;7.864;2022-12-07T11:56:52;8.57;;;3.20;;
4831;SDS011;2430;51.322;7.864;2022-12-07T11:59:22;7.40;;;3.47;;
4831;SDS011;2430;51.322;7.864;2022-12-07T12:01:52;3.90;;;2.20;;
4831;SDS011;2430;51.322;7.864;2022-12-07T12:04:32;2.60;;;2.40;;
4831;SDS011;2430;51.322;7.864;2022-12-07T12:07:00;3.47;;;2.10;;
4831;SDS011;2430;51.322;7.864;2022-12-07T12:09:28;2.97;;;2.67;;
4831;SDS011;2430;51.322;7.864;2022-12-07T12:12:06;6.47;;;2.97;;
4831;SDS011;2430;51.322;7.864;2022-12-07T12:14:37;3.93;;;3.23;;
4831;SDS011;2430;51.322;7.864;2022-12-07T12:17:17;4.40;;;2.60;;
4831;SDS011;2430;51.322;7.864;2022-12-07T12:19:57;6.40;;;2.87;;
4831;SDS011;2430;51.322;7.864;2022-12-07T12:22:26;3.73;;;2.10;;
4831;SDS011;2430;51.322;7.864;2022-12-07T12:24:55;2.67;;;1.93;;
4831;SDS011;2430;51.322;7.864;2022-12-07T12:27:23;2.60;;;2.40;;
4831;SDS011;2430;51.322;7.864;2022-12-07T12:29:52;5.60;;;2.97;;
4831;SDS011;2430;51.322;7.864;2022-12-07T12:32:20;3.17;;;2.40;;
4831;SDS011;2430;51.322;7.864;2022-12-07T12:35:00;10.07;;;2.63;;
4831;SDS011;2430;51.322;7.864;2022-12-07T12:37:43;3.43;;;2.27;;
4831;SDS011;2430;51.322;7.864;2022-12-07T12:43:02;2.63;;;2.43;;
4831;SDS011;2430;51.322;7.864;2022-12-07T12:45:33;6.07;;;2.60;;
4831;SDS011;2430;51.322;7.864;2022-12-07T12:48:00;2.40;;;2.20;;
4831;SDS011;2430;51.322;7.864;2022-12-07T12:50:29;2.60;;;2.40;;
4831;SDS011;2430;51.322;7.864;2022-12-07T12:53:12;2.03;;;1.70;;
4831;SDS011;2430;51.322;7.864;2022-12-07T12:58:29;2.03;;;1.60;;
4831;SDS011;2430;51.322;7.864;2022-12-07T13:03:56;6.80;;;3.00;;
4831;SDS011;2430;51.322;7.864;2022-12-07T13:06:34;5.93;;;2.87;;
4831;SDS011;2430;51.322;7.864;2022-12-07T13:09:03;6.20;;;3.03;;
4831;SDS011;2430;51.322;7.864;2022-12-07T13:11:37;4.23;;;2.53;;
4831;SDS011;2430;51.322;7.864;2022-12-07T13:16:58;3.00;;;2.80;;
4831;SDS011;2430;51.322;7.864;2022-12-07T13:19:52;3.70;;;3.27;;
4831;SDS011;2430;51.322;7.864;2022-12-07T13:22:37;3.60;;;2.90;;
4831;SDS011;2430;51.322;7.864;2022-12-07T13:25:07;8.40;;;3.10;;
4831;SDS011;2430;51.322;7.864;2022-12-07T13:27:35;3.10;;;2.57;;
4831;SDS011;2430;51.322;7.864;2022-12-07T13:30:06;2.90;;;2.30;;
4831;SDS011;2430;51.322;7.864;2022-12-07T13:32:35;5.00;;;2.80;;
4831;SDS011;2430;51.322;7.864;2022-12-07T13:37:44;5.50;;;3.93;;
4831;SDS011;2430;51.322;7.864;2022-12-07T13:40:15;3.90;;;2.80;;
4831;SDS011;2430;51.322;7.864;2022-12-07T13:42:43;3.07;;;2.80;;
4831;SDS011;2430;51.322;7.864;2022-12-07T13:45:20;2.33;;;2.10;;
4831;SDS011;2430;51.322;7.864;2022-12-07T13:47:48;5.73;;;3.80;;
4831;SDS011;2430;51.322;7.864;2022-12-07T13:50:22;2.70;;;2.50;;
4831;SDS011;2430;51.322;7.864;2022-12-07T13:52:50;4.20;;;3.30;;
4831;SDS011;2430;51.322;7.864;2022-12-07T13:55:20;4.03;;;3.23;;
4831;SDS011;2430;51.322;7.864;2022-12-07T13:57:48;2.90;;;2.70;;
4831;SDS011;2430;51.322;7.864;2022-12-07T14:00:16;2.83;;;2.63;;
4831;SDS011;2430;51.322;7.864;2022-12-07T14:02:54;4.03;;;3.17;;
4831;SDS011;2430;51.322;7.864;2022-12-07T14:05:23;7.23;;;4.03;;
4831;SDS011;2430;51.322;7.864;2022-12-07T14:07:54;4.13;;;3.53;;
4831;SDS011;2430;51.322;7.864;2022-12-07T14:10:24;3.00;;;2.67;;
4831;SDS011;2430;51.322;7.864;2022-12-07T14:12:51;4.30;;;2.87;;
4831;SDS011;2430;51.322;7.864;2022-12-07T14:15:19;4.93;;;3.53;;
4831;SDS011;2430;51.322;7.864;2022-12-07T14:17:49;7.50;;;3.57;;
4831;SDS011;2430;51.322;7.864;2022-12-07T14:20:30;3.87;;;3.43;;
4831;SDS011;2430;51.322;7.864;2022-12-07T14:22:58;16.50;;;4.57;;
4831;SDS011;2430;51.322;7.864;2022-12-07T14:25:43;5.93;;;3.90;;
4831;SDS011;2430;51.322;7.864;2022-12-07T14:28:24;4.20;;;3.67;;
4831;SDS011;2430;51.322;7.864;2022-12-07T14:30:51;4.57;;;3.20;;
4831;SDS011;2430;51.322;7.864;2022-12-07T14:33:17;14.17;;;3.67;;
4831;SDS011;2430;51.322;7.864;2022-12-07T14:35:44;3.70;;;2.53;;
4831;SDS011;2430;51.322;7.864;2022-12-07T14:38:12;3.63;;;3.30;;
4831;SDS011;2430;51.322;7.864;2022-12-07T14:40:39;6.07;;;3.13;;
4831;SDS011;2430;51.322;7.864;2022-12-07T14:43:08;6.87;;;2.87;;
4831;SDS011;2430;51.322;7.864;2022-12-07T14:45:35;4.80;;;3.93;;
4831;SDS011;2430;51.322;7.864;2022-12-07T14:48:02;7.03;;;4.03;;
4831;SDS011;2430;51.322;7.864;2022-12-07T14:50:28;3.60;;;3.03;;
4831;SDS011;2430;51.322;7.864;2022-12-07T14:52:56;5.20;;;3.23;;
4831;SDS011;2430;51.322;7.864;2022-12-07T14:55:27;9.97;;;4.03;;
4831;SDS011;2430;51.322;7.864;2022-12-07T14:57:54;5.70;;;4.00;;
4831;SDS011;2430;51.322;7.864;2022-12-07T15:00:21;3.43;;;3.13;;
4831;SDS011;2430;51.322;7.864;2022-12-07T15:02:48;18.23;;;3.33;;
4831;SDS011;2430;51.322;7.864;2022-12-07T15:05:15;4.63;;;3.47;;
4831;SDS011;2430;51.322;7.864;2022-12-07T15:07:43;3.03;;;2.83;;
4831;SDS011;2430;51.322;7.864;2022-12-07T15:10:13;5.07;;;3.57;;
4831;SDS011;2430;51.322;7.864;2022-12-07T15:12:42;4.43;;;4.03;;
4831;SDS011;2430;51.322;7.864;2022-12-07T15:15:09;9.23;;;3.60;;
4831;SDS011;2430;51.322;7.864;2022-12-07T15:17:36;7.87;;;4.97;;
4831;SDS011;2430;51.322;7.864;2022-12-07T15:22:42;8.77;;;4.17;;
4831;SDS011;2430;51.322;7.864;2022-12-07T15:25:08;5.27;;;3.50;;
4831;SDS011;2430;51.322;7.864;2022-12-07T15:27:35;4.97;;;2.93;;
4831;SDS011;2430;51.322;7.864;2022-12-07T15:30:04;2.57;;;2.37;;
4831;SDS011;2430;51.322;7.864;2022-12-07T15:32:31;2.40;;;2.07;;
4831;SDS011;2430;51.322;7.864;2022-12-07T15:34:57;3.53;;;2.10;;
4831;SDS011;2430;51.322;7.864;2022-12-07T15:37:24;4.10;;;3.40;;
4831;SDS011;2430;51.322;7.864;2022-12-07T15:39:51;8.50;;;3.97;;
4831;SDS011;2430;51.322;7.864;2022-12-07T15:42:17;5.37;;;2.80;;
4831;SDS011;2430;51.322;7.864;2022-12-07T15:44:44;4.07;;;3.40;;
4831;SDS011;2430;51.322;7.864;2022-12-07T15:47:29;3.80;;;3.00;;
4831;SDS011;2430;51.322;7.864;2022-12-07T15:49:55;3.43;;;2.73;;
4831;SDS011;2430;51.322;7.864;2022-12-07T15:52:22;2.63;;;2.40;;
4831;SDS011;2430;51.322;7.864;2022-12-07T15:54:48;4.20;;;2.73;;